Altoona, Kansas
Current Conditions -  °F | °C
As of 7:52 AM on Friday 24 Oct 2014 (Local Time) from KCNU Reporting Station
Few Clouds Few Clouds  
Wind Chill: 56°   Ceiling: Unl
Heat Index: 56°   Visibility: 8mi
Dew Point: 55°   Wind: 8mph
Humidity: 97%   Direction: 190°S
Pressure: 30.08"   Gusts: NA
Location:  37.52°N, 95.66°W
Report Text: KCNU 241252Z AUTO 19007KT 8SM FEW041 13/13 A3008 RMK AO2 SLP180 T01330128
Loading
Personal Weather Stations






























Interactive Weather Map
Tropical Storm Tracking
New forecast layout! Learn more

10-Day Weather Forecast

Advertisements
Track Severe Weather on mobile